POGODA: Poland

Lotnisko: Szczecin-Goleniow

METAR KOD: EPSC


METAR: EPSC 292130Z 25006KT 6000 SCT040 16/15 Q1014


BLOK
Pogoda METAR
292130Z
Dzien: 29, Godzina: 21:30 UTC.
25006KT
Wiatr z kierunku 250, o predkosci 11 km/h
6000
Widzialnosc pozioma 6000 m.
SCT040
3/8 - 4/8 pokrycia nieba, chmurami o podstawie: 1200 metrow
16/15
Temperatura: powietrze 16°C, punkt rosy 15°C . Wilgotnosc wzgledna 94 %
Q1014
Cisnienie: 1014 hPa

Pogoda na innym lotnisku

Pogoda Gdansk-Rebiechowo WEATHER Poland  
Pogoda Katowice WEATHER Poland  
Pogoda Krakow WEATHER Poland  
Pogoda Poznan WEATHER Poland  
Pogoda Rzeszow-Jasionka WEATHER Poland  
Pogoda Szczecin WEATHER Poland  
Pogoda Warszawa-Okecie WEATHER Poland  
Pogoda Wroclaw Ii WEATHER Poland  

Pogoda w inny kraju

Strona startowa

(C) by GREGOR 2007
Ogłoszenia Towarzyskie